UKDR/KWG METAR and TAF weather

Enter ICAO airport designator
Station Type Date Time Source
UKDR METAR 2019/12/08 01:00 UTC NOAA

UKDR 080100Z 14002MPS 9999 BKN033 04/02 Q1012 R18/09//70 NOSIG


Station Type Date Time Source
UKDR Decoded METAR 2019/12/08 01:00 UTC NOAA

Krivyy Rih / Dnipropetrovs'k, Ukraine (UKDR) 48-03N 033-13-12E
Dec 07, 2019 - 08:00 PM EST / 2019.12.08 0100 UTC
Wind: from the SE (140 degrees) at 4 MPH (4 KT):0
Visibility: greater than 7 mile(s):0
Sky conditions: mostly cloudy
Temperature: 39 F (4 C)
Dew Point: 35 F (2 C)
Relative Humidity: 86%
Pressure (altimeter): 29.88 in. Hg (1012 hPa)
ob: UKDR 080100Z 14002MPS 9999 BKN033 04/02 Q1012 R18/09//70 NOSIG
cycle: 1

Station Type Date Time Source
UKDR TAF 2019/12/07 18:00 UTC NOAA

TAF UKDR 071710Z 0718/0818 16005MPS 3100 BR OVC011 TX05/0812Z TN01/0804Z
TEMPO 0720/0722 1100 BR OVC004
BECMG 0722/0724 VRB01MPS 0400 FG VV002
BECMG 0807/0809 3100 BR OVC007

Example: see airport list